Aérodrome :
LOGIN :

S'inscrire | Disclaimer

   EN    FR    IT 

 










Légende :    VFR   VFR Marginal   IFR   IFR Intensif   IFR Très Intensif
Visi : 
Plafond : 
>= 8 km
>= 3000ft
5 à 8 km
1000 à 3000 ft
1500m à 5 km
500 à 1000 ft
800 à 1500m
200 à 500 ft
< 800m
< 200 ft
Symboles :   Orages  Brouillard  Fortes neiges  Fortes précipitations  Vent > 20 kt
SIGMETs :   Divers  Orages  Givrage  Turbulence  Onde Orograph.  Cendres Volcan.







- Altitude de l'aérodrome : 74 ft
- Code IATA : LRH
- Voir les cartes d'approche


LFBH - La Rochelle Ile de Ré

DERNIER METAR :
  • 140800Z AUTO 24012KT 9999 SCT023/// BKN028/// BKN035/// ///TCU 11/08 Q1009 TEMPO 25020G30KT 3000 -RA BECMG BKN030

METARs EXPIRÉS :
  • 140730Z AUTO 24010KT 9999 SCT021 BKN032 BKN048 10/08 Q1010 TEMPO 25020G30KT 3000 -RA
  • 140700Z AUTO 25010KT 9999 FEW039 BKN054 OVC064 10/07 Q1010 TEMPO 25020G30KT 3000 -RA
  • 140630Z AUTO 25008KT 9999 BKN049 OVC058 10/08 Q1010 TEMPO 25020G30KT 3000 -RA
  • 140600Z AUTO 25009KT 9999 SCT041 SCT052 BKN064 10/08 Q1011 TEMPO 25020G30KT 3000 -RA
  • 140530Z AUTO 25008KT CAVOK 09/08 Q1010 TEMPO 25020G30KT 3000 -RA

TAF TAF LFBH
Valide du 14 à 06h jusqu'au 15 à 06h UTC


140500Z 1406/1506 25015KT 9999 BKN030
TEMPO 1406/1412 25020G30KT 3000 -RA
TEMPO 1412/1506 26025G40KT 2000 SHRA BKN014TCU
PROB40
TEMPO 1416/1419 29030G50KT 1500 TSRA BKN010TCU SCT040CB
ATIS : +33 5 46 00 13 92
Pas de NOTAMs connus pour ce terrain.



MET'MAP, la Météo Aéronautique d'un coup d'oeil ! - Copyright ORBIFLY Décembre 2007 - Disclaimer

ORBIFLY MET'MAP TEAM :

Programmation & Développement : Alexandra Zaïnal
Conception & Développement : Baudouin d'Aumeries
Co-Programmation & Développement : Marc-Olivier Méhu
Soutien technique & logistique : Manuel Goepfert

Contact : metmap@orbifly.com




SOURCES & CREDITS :

   NOAA